Time;durP1;ratioP1;P1;durP2;ratioP2;P2;SDS_P1;SDS_P2;PMS_P1;PMS_P2;Temp;Humidity;BMP_temperature;BMP_pressure;BME280_temperature;BME280_humidity;BME280_pressure;Samples;Min_cycle;Max_cycle;Signal;HPM_P1;HPM_P2
2023/03/04 00:00:59;;;;;;;19.97;13.90;;;;;;;2.39;49.10;100260.41;10434551;28;20282;-37
2023/03/04 00:06:00;;;;;;;19.33;13.57;;;;;;;3.38;47.82;100142.31;10438858;28;20236;-41
2023/03/04 00:11:03;;;;;;;21.30;13.87;;;;;;;3.92;46.29;100127.19;10439263;28;20235;-38
2023/03/04 00:16:05;;;;;;;20.67;14.30;;;;;;;2.23;48.92;100266.06;10437884;28;20259;-37
2023/03/04 00:21:07;;;;;;;20.77;14.50;;;;;;;3.22;47.93;100153.34;10446067;28;20259;-37
2023/03/04 00:26:09;;;;;;;21.47;14.47;;;;;;;2.17;48.52;100308.75;10441377;28;20232;-38
2023/03/04 00:31:11;;;;;;;25.87;16.67;;;;;;;2.03;49.39;100258.78;10440507;28;20272;-37
2023/03/04 00:36:13;;;;;;;24.30;16.33;;;;;;;2.11;49.86;100227.38;10441774;28;20720;-37
2023/03/04 00:41:14;;;;;;;23.80;16.63;;;;;;;1.78;49.58;100282.59;10449965;28;20232;-37
2023/03/04 00:46:16;;;;;;;22.13;16.00;;;;;;;3.05;47.99;100136.22;10450565;28;20235;-37
2023/03/04 00:51:18;;;;;;;24.83;16.73;;;;;;;1.59;50.29;100272.59;10446046;28;20231;-38
2023/03/04 00:56:20;;;;;;;26.63;18.07;;;;;;;2.21;48.66;100215.13;10449942;28;20241;-38
2023/03/04 01:01:22;;;;;;;29.67;19.50;;;;;;;1.09;51.14;100329.81;10441369;28;20770;-37
2023/03/04 01:06:23;;;;;;;28.13;19.37;;;;;;;2.00;49.52;100225.56;10435454;28;20224;-37
2023/03/04 01:11:25;;;;;;;29.03;19.23;;;;;;;1.96;50.00;100195.06;10452892;28;20234;-38
2023/03/04 01:16:27;;;;;;;30.90;20.67;;;;;;;2.09;49.08;100214.28;10444143;28;20235;-38
2023/03/04 01:21:29;;;;;;;33.13;20.87;;;;;;;2.02;49.92;100218.34;10445652;28;20264;-37
2023/03/04 01:26:31;;;;;;;33.43;21.13;;;;;;;1.99;49.83;100221.22;10448071;28;20370;-37
2023/03/04 01:31:32;;;;;;;30.27;20.77;;;;;;;2.37;49.52;100177.81;10445643;28;20231;-40
2023/03/04 01:36:34;;;;;;;33.63;20.10;;;;;;;2.53;49.48;100140.44;10444281;28;20234;-37
2023/03/04 01:41:36;;;;;;;33.83;20.13;;;;;;;2.17;49.55;100182.84;10445250;28;20231;-40
2023/03/04 01:46:49;;;;;;;34.47;22.77;;;;;;;1.45;50.31;100237.66;10438598;28;20616;-39
2023/03/04 01:51:54;;;;;;;33.63;21.10;;;;;;;1.15;51.28;100263.50;10443469;28;20262;-40
2023/03/04 01:56:59;;;;;;;35.37;23.43;;;;;;;1.82;50.05;100167.09;10452078;28;20253;-38
2023/03/04 02:02:01;;;;;;;37.77;22.80;;;;;;;1.92;50.54;100146.13;10438579;28;20250;-39
2023/03/04 02:07:04;;;;;;;35.77;21.77;;;;;;;2.30;48.82;100153.69;10442970;28;20712;-37
2023/03/04 02:12:06;;;;;;;35.87;21.53;;;;;;;2.15;50.04;100120.56;10444945;28;20247;-41
2023/03/04 02:17:11;;;;;;;37.13;21.63;;;;;;;2.43;48.96;100105.97;10442454;28;20234;-39
2023/03/04 02:22:13;;;;;;;36.27;22.37;;;;;;;1.70;49.89;100183.88;10436382;28;20254;-37
2023/03/04 02:27:14;;;;;;;36.47;22.53;;;;;;;2.86;48.21;100099.03;10439336;28;20246;-42
2023/03/04 02:32:16;;;;;;;36.83;23.47;;;;;;;2.80;47.89;100131.25;10439472;28;20239;-39
2023/03/04 02:37:19;;;;;;;38.60;23.27;;;;;;;2.26;48.90;100189.19;10437621;28;20228;-40
2023/03/04 02:42:20;;;;;;;37.00;22.80;;;;;;;2.14;49.53;100182.25;10439518;28;20234;-40
2023/03/04 02:47:22;;;;;;;39.17;24.90;;;;;;;1.55;50.28;100231.56;10435966;28;20238;-41
2023/03/04 02:52:25;;;;;;;35.50;21.67;;;;;;;2.03;49.58;100164.63;10434543;28;20231;-37
2023/03/04 02:57:27;;;;;;;33.17;21.30;;;;;;;2.25;49.24;100155.00;10442225;28;20244;-40
2023/03/04 03:02:28;;;;;;;42.00;24.20;;;;;;;1.87;49.56;100185.22;10438235;28;20232;-37
2023/03/04 03:07:31;;;;;;;39.00;24.13;;;;;;;1.43;51.01;100227.19;10441676;28;20227;-38
2023/03/04 03:12:32;;;;;;;41.07;23.63;;;;;;;1.35;50.96;100204.03;10439260;28;20245;-39
2023/03/04 03:17:34;;;;;;;42.17;23.53;;;;;;;1.38;51.73;100168.69;10440561;28;20230;-39
2023/03/04 03:22:36;;;;;;;43.57;23.73;;;;;;;1.19;51.08;100196.38;10443262;28;20230;-39
2023/03/04 03:27:38;;;;;;;39.27;23.50;;;;;;;2.23;49.42;100093.53;10433624;28;20230;-39
2023/03/04 03:32:40;;;;;;;46.70;24.43;;;;;;;1.82;50.46;100134.59;10430188;28;20237;-37
2023/03/04 03:37:41;;;;;;;42.77;23.57;;;;;;;1.30;51.31;100192.13;10436777;28;20886;-37
2023/03/04 03:42:43;;;;;;;45.13;24.27;;;;;;;2.00;49.75;100133.16;10443038;28;20585;-38
2023/03/04 03:47:45;;;;;;;46.53;23.90;;;;;;;1.65;49.64;100180.75;10435412;28;20604;-38
2023/03/04 03:52:47;;;;;;;45.67;26.23;;;;;;;1.31;50.71;100223.66;10452912;28;20243;-38
2023/03/04 03:57:48;;;;;;;40.20;22.63;;;;;;;2.28;48.91;100101.94;10440458;28;20244;-37
2023/03/04 04:02:53;;;;;;;43.20;24.33;;;;;;;2.32;48.72;100113.94;10446653;28;20261;-39
2023/03/04 04:07:55;;;;;;;39.37;22.53;;;;;;;1.12;50.78;100237.34;10448432;28;20709;-37
2023/03/04 04:12:57;;;;;;;44.00;24.60;;;;;;;0.74;51.14;100259.38;10443257;28;20270;-38
2023/03/04 04:17:58;;;;;;;45.97;25.63;;;;;;;1.06;50.99;100235.97;10447457;28;20240;-39
2023/03/04 04:23:00;;;;;;;47.80;25.43;;;;;;;1.53;49.84;100195.72;10447128;28;20237;-37
2023/03/04 04:28:02;;;;;;;43.60;25.03;;;;;;;0.91;50.53;100229.19;10453815;28;20605;-38
2023/03/04 04:33:04;;;;;;;43.07;23.17;;;;;;;2.04;48.86;100108.19;10443708;28;20604;-37
2023/03/04 04:38:07;;;;;;;42.67;25.37;;;;;;;1.22;50.41;100190.91;10449856;28;20219;-37
2023/03/04 04:43:09;;;;;;;44.60;25.40;;;;;;;-0.14;52.38;100346.97;10442716;28;20630;-40
2023/03/04 04:48:11;;;;;;;41.47;24.37;;;;;;;1.00;51.16;100149.47;10452399;28;20250;-37
2023/03/04 04:53:13;;;;;;;45.50;25.23;;;;;;;0.37;52.07;100246.16;10442588;28;20261;-39
2023/03/04 04:58:14;;;;;;;45.53;26.57;;;;;;;-0.58;53.69;100319.13;10441192;28;20354;-37
2023/03/04 05:03:16;;;;;;;44.63;24.70;;;;;;;0.13;52.70;100256.59;10452290;28;20231;-39
2023/03/04 05:08:19;;;;;;;44.90;25.07;;;;;;;0.55;52.21;100206.34;10450385;28;20241;-39
2023/03/04 05:13:21;;;;;;;46.70;24.80;;;;;;;0.43;51.57;100195.72;10440908;28;20277;-37
2023/03/04 05:18:24;;;;;;;41.70;23.80;;;;;;;0.59;51.72;100170.91;10443971;28;20241;-36
2023/03/04 05:23:29;;;;;;;44.97;25.70;;;;;;;0.24;52.47;100208.47;10442529;28;20231;-38
2023/03/04 05:28:31;;;;;;;47.47;26.13;;;;;;;0.68;51.55;100168.47;10453138;28;20237;-37
2023/03/04 05:33:33;;;;;;;46.83;25.87;;;;;;;-0.03;52.87;100248.88;10445197;28;20966;-38
2023/03/04 05:38:35;;;;;;;48.67;26.37;;;;;;;0.89;52.32;100109.88;10446727;28;20610;-37
2023/03/04 05:43:41;;;;;;;45.33;25.57;;;;;;;0.41;52.23;100180.94;10439503;28;20242;-38
2023/03/04 05:48:43;;;;;;;48.13;25.03;;;;;;;0.13;52.79;100241.63;10446388;28;20231;-38
2023/03/04 05:53:45;;;;;;;44.53;25.13;;;;;;;1.80;50.34;100064.28;10439634;28;20237;-39
2023/03/04 05:58:47;;;;;;;46.13;25.17;;;;;;;1.19;50.70;100134.91;10442459;28;20264;-39
2023/03/04 06:03:49;;;;;;;46.83;25.67;;;;;;;-0.04;52.84;100284.06;10439685;28;20252;-38
2023/03/04 06:08:51;;;;;;;46.23;24.00;;;;;;;0.87;50.93;100196.13;10441832;28;20270;-36
2023/03/04 06:13:52;;;;;;;48.03;24.10;;;;;;;1.09;50.33;100149.75;10437422;28;20246;-37
2023/03/04 06:18:54;;;;;;;41.80;23.47;;;;;;;0.79;51.27;100199.28;10441828;28;20246;-38
2023/03/04 06:23:56;;;;;;;51.67;25.77;;;;;;;-0.15;53.43;100291.81;10441389;28;20231;-37
2023/03/04 06:28:58;;;;;;;43.73;24.17;;;;;;;0.17;52.98;100242.25;10443686;28;20720;-37
2023/03/04 06:33:59;;;;;;;50.17;23.63;;;;;;;1.47;51.07;100101.22;10441056;28;20254;-37
2023/03/04 06:39:06;;;;;;;45.33;24.77;;;;;;;0.86;50.52;100253.25;10441900;28;20740;-37
2023/03/04 06:44:07;;;;;;;50.07;25.57;;;;;;;1.69;48.87;100172.50;10440858;28;20249;-37
2023/03/04 06:49:09;;;;;;;48.67;25.33;;;;;;;0.98;51.14;100225.19;10441082;28;20596;-38
2023/03/04 06:54:11;;;;;;;45.23;24.00;;;;;;;0.89;50.33;100241.63;10438694;28;20736;-38
2023/03/04 06:59:13;;;;;;;44.37;22.87;;;;;;;1.66;48.93;100191.19;10451926;28;20235;-39
2023/03/04 07:04:15;;;;;;;47.90;25.03;;;;;;;1.93;48.67;100176.84;10442508;28;20234;-37
2023/03/04 07:09:17;;;;;;;43.37;23.37;;;;;;;1.40;49.27;100256.44;10444820;28;20333;-37
2023/03/04 07:14:19;;;;;;;45.53;24.73;;;;;;;1.48;49.02;100262.00;10442531;28;20235;-37
2023/03/04 07:19:24;;;;;;;48.30;26.10;;;;;;;1.31;50.03;100305.38;10440660;28;20329;-36
2023/03/04 07:24:26;;;;;;;46.10;24.23;;;;;;;1.82;50.20;100246.28;10446617;28;20234;-39
2023/03/04 07:29:28;;;;;;;42.10;23.13;;;;;;;2.23;49.57;100204.44;10446953;28;20243;-38
2023/03/04 07:34:30;;;;;;;45.53;25.50;;;;;;;1.22;50.41;100350.91;10444938;28;20243;-37
2023/03/04 07:39:32;;;;;;;47.87;24.43;;;;;;;1.84;50.28;100252.28;10451290;28;20230;-37
2023/03/04 07:44:33;;;;;;;47.53;24.77;;;;;;;1.95;50.24;100252.31;10442993;28;21027;-37
2023/03/04 07:49:35;;;;;;;54.57;30.27;;;;;;;2.34;49.40;100241.44;10452532;28;20330;-38
2023/03/04 07:54:37;;;;;;;55.23;31.77;;;;;;;1.47;50.63;100354.41;10442537;28;20239;-37
2023/03/04 07:59:39;;;;;;;68.80;35.20;;;;;;;-0.41;54.24;100480.25;10441659;28;20293;-36
2023/03/04 08:04:41;;;;;;;50.07;29.43;;;;;;;0.21;53.43;100420.13;10451960;28;20729;-37
2023/03/04 08:09:43;;;;;;;46.67;25.13;;;;;;;-0.24;55.73;100416.91;10442836;28;20239;-38
2023/03/04 08:14:45;;;;;;;46.63;24.33;;;;;;;-0.43;56.10;100419.88;10435998;28;20740;-37
2023/03/04 08:19:47;;;;;;;49.73;27.47;;;;;;;-0.55;56.96;100397.81;10443773;28;20246;-36
2023/03/04 08:24:48;;;;;;;47.07;26.17;;;;;;;0.16;54.91;100380.09;10443965;28;20235;-37
2023/03/04 08:29:50;;;;;;;55.87;28.37;;;;;;;0.43;54.62;100340.53;10457729;28;20253;-38
2023/03/04 08:34:54;;;;;;;51.60;27.67;;;;;;;2.46;51.31;100198.19;10439011;28;20238;-37
2023/03/04 08:39:56;;;;;;;54.83;27.00;;;;;;;0.89;54.22;100306.69;10454078;28;20243;-36
2023/03/04 08:44:57;;;;;;;50.00;27.77;;;;;;;0.58;54.21;100401.00;10446807;28;20241;-37
2023/03/04 08:49:59;;;;;;;53.83;27.23;;;;;;;0.77;54.98;100332.94;10442252;28;20231;-37
2023/03/04 08:55:01;;;;;;;52.70;26.53;;;;;;;1.73;53.03;100273.38;10446742;28;20245;-37
2023/03/04 09:00:03;;;;;;;57.73;28.10;;;;;;;1.67;53.32;100287.84;10447754;28;20228;-37
2023/03/04 09:05:05;;;;;;;51.83;28.30;;;;;;;1.71;53.14;100262.06;10449797;28;20238;-37
2023/03/04 09:10:08;;;;;;;47.77;27.50;;;;;;;3.55;50.01;100215.00;10449470;28;20231;-37
2023/03/04 09:15:10;;;;;;;50.33;27.53;;;;;;;3.57;49.88;100244.81;10438008;28;20693;-37
2023/03/04 09:20:12;;;;;;;46.83;25.57;;;;;;;3.35;49.08;100327.78;10447220;28;20231;-38
2023/03/04 09:25:14;;;;;;;46.73;25.23;;;;;;;3.49;48.17;100326.63;10449865;28;20722;-40
2023/03/04 09:30:16;;;;;;;46.17;27.43;;;;;;;3.32;48.52;100370.34;10436219;28;20235;-38
2023/03/04 09:35:18;;;;;;;40.90;24.17;;;;;;;3.39;49.51;100355.66;10442050;28;20237;-37
2023/03/04 09:40:49;;;;;;;40.50;26.03;;;;;;;2.18;51.12;100468.91;10442398;28;20293;-38
2023/03/04 09:45:55;;;;;;;44.17;26.17;;;;;;;2.97;50.53;100360.75;10426326;28;20694;-37
2023/03/04 09:51:03;;;;;;;39.47;24.73;;;;;;;2.27;50.84;100467.38;10437882;28;20270;-38
2023/03/04 09:56:05;;;;;;;41.93;25.93;;;;;;;2.68;50.22;100406.09;10433683;28;20246;-37
2023/03/04 10:01:25;;;;;;;45.77;27.17;;;;;;;3.87;48.45;100313.84;10449852;28;20245;-40
2023/03/04 10:06:30;;;;;;;44.33;28.63;;;;;;;3.77;46.60;100358.81;10440589;28;20797;-41
2023/03/04 10:11:43;;;;;;;44.77;29.03;;;;;;;3.13;47.52;100397.41;10440803;28;20246;-38
2023/03/04 10:16:56;;;;;;;42.43;28.23;;;;;;;2.31;48.21;100488.13;10430920;28;20243;-40
2023/03/04 10:21:58;;;;;;;44.23;28.93;;;;;;;2.46;47.88;100487.97;10449779;28;20231;-39
2023/03/04 10:27:06;;;;;;;44.47;27.43;;;;;;;4.27;46.82;100315.81;10435117;28;20251;-39
2023/03/04 10:32:15;;;;;;;40.37;25.77;;;;;;;3.89;47.24;100341.06;10443106;28;20691;-37
2023/03/04 10:37:16;;;;;;;39.97;24.70;;;;;;;3.66;46.62;100388.78;10433433;28;20239;-38
2023/03/04 10:42:19;;;;;;;39.20;23.33;;;;;;;4.15;46.53;100353.00;10442559;28;20239;-38
2023/03/04 10:47:30;;;;;;;170.53;97.43;;;;;;;3.74;46.75;100414.66;10439157;28;20235;-36
2023/03/04 10:52:40;;;;;;;84.00;49.23;;;;;;;4.74;46.02;100308.28;10440821;28;20235;-39
2023/03/04 10:57:47;;;;;;;42.10;27.53;;;;;;;3.41;46.64;100461.34;10424436;28;20232;-38
2023/03/04 11:06:32;;;;;;;39.90;24.80;;;;;;;2.18;49.60;100490.03;10395774;27;20798;-66
2023/03/04 11:11:41;;;;;;;43.17;26.87;;;;;;;2.79;49.83;100389.44;10385168;28;20235;-64
2023/03/04 11:16:53;;;;;;;41.57;27.27;;;;;;;2.62;49.38;100429.50;10382005;28;20244;-64
2023/03/04 11:21:57;;;;;;;43.47;26.37;;;;;;;2.35;49.50;100459.72;10381089;28;20324;-65
2023/03/04 11:27:04;;;;;;;40.27;24.17;;;;;;;2.39;49.68;100421.53;10383021;28;20236;-66
2023/03/04 11:32:28;;;;;;;40.80;24.77;;;;;;;3.87;47.45;100312.06;10344546;28;20236;-66
2023/03/04 11:37:46;;;;;;;41.10;25.60;;;;;;;2.82;49.23;100386.56;10381495;28;20229;-64
2023/03/04 11:42:53;;;;;;;40.67;23.47;;;;;;;3.45;48.20;100327.88;10377678;28;20241;-65
2023/03/04 11:47:58;;;;;;;32.33;20.40;;;;;;;2.44;49.17;100416.75;10339366;28;20734;-65
2023/03/04 11:53:30;;;;;;;31.83;19.87;;;;;;;1.24;50.11;100517.72;10333948;28;20230;-66
2023/03/04 11:58:44;;;;;;;28.97;19.13;;;;;;;2.08;49.30;100412.41;10375620;28;20244;-66
2023/03/04 12:03:58;;;;;;;34.13;19.63;;;;;;;2.42;48.93;100349.16;10373312;28;20248;-65
2023/03/04 12:09:07;;;;;;;30.00;18.80;;;;;;;3.62;47.70;100261.16;10372765;28;20237;-66
2023/03/04 12:14:24;;;;;;;28.97;17.97;;;;;;;2.51;47.97;100367.75;10370999;28;20233;-66
2023/03/04 12:19:40;;;;;;;28.50;18.47;;;;;;;1.56;49.53;100473.31;10336429;28;20379;-66
2023/03/04 12:25:12;;;;;;;32.37;18.53;;;;;;;3.14;47.74;100281.88;10347549;28;20246;-66
2023/03/04 12:30:37;;;;;;;27.63;18.43;;;;;;;1.18;50.32;100481.22;10334568;28;20322;-66
2023/03/04 12:35:45;;;;;;;29.83;17.63;;;;;;;2.63;48.42;100336.91;10338704;28;20241;-65
2023/03/04 12:41:05;;;;;;;31.67;18.00;;;;;;;2.36;48.97;100339.88;10347577;28;20237;-66
2023/03/04 12:46:20;;;;;;;28.57;17.43;;;;;;;2.73;48.27;100337.88;10353418;28;20241;-65
2023/03/04 12:51:47;;;;;;;32.77;18.63;;;;;;;3.19;47.94;100259.41;10352704;28;20235;-66
2023/03/04 12:57:07;;;;;;;30.20;18.00;;;;;;;2.43;47.95;100342.91;10352842;28;20244;-64
2023/03/04 13:02:34;;;;;;;26.53;16.80;;;;;;;2.83;47.48;100301.00;10348246;28;20654;-66
2023/03/04 13:08:17;;;;;;;28.87;17.47;;;;;;;2.80;47.58;100295.13;10335752;28;20263;-66
2023/03/04 13:13:31;;;;;;;30.17;17.67;;;;;;;2.10;48.40;100381.47;10330892;28;20237;-68
2023/03/04 13:18:35;;;;;;;28.13;17.53;;;;;;;3.08;47.68;100240.91;10342512;28;20237;-66
2023/03/04 13:23:37;;;;;;;25.40;17.60;;;;;;;1.50;48.93;100414.88;10340052;28;20256;-66
2023/03/04 13:28:38;;;;;;;26.73;17.03;;;;;;;2.68;48.03;100278.44;10340005;28;20245;-67
2023/03/04 13:33:52;;;;;;;26.33;15.93;;;;;;;2.34;47.18;100331.25;10341018;28;20622;-74
2023/03/04 13:38:59;;;;;;;29.47;17.03;;;;;;;4.20;45.37;100213.03;10335598;28;20232;-74
2023/03/04 13:44:05;;;;;;;29.87;18.47;;;;;;;4.34;44.59;100222.47;10340366;28;20252;-66
2023/03/04 13:49:18;;;;;;;29.03;16.97;;;;;;;2.63;47.17;100367.78;10338387;28;20612;-67
2023/03/04 13:54:32;;;;;;;27.83;16.97;;;;;;;3.23;46.81;100266.13;10345777;28;20248;-67
2023/03/04 13:59:56;;;;;;;25.77;17.60;;;;;;;2.89;46.95;100286.47;10348725;28;20618;-64
2023/03/04 14:05:01;;;;;;;26.73;16.17;;;;;;;3.55;44.84;100285.63;10349638;28;20816;-65
2023/03/04 14:10:11;;;;;;;27.90;16.03;;;;;;;4.54;44.94;100211.94;10347934;28;20236;-65
2023/03/04 14:15:12;;;;;;;27.43;15.83;;;;;;;3.59;45.40;100293.16;10349303;28;20240;-65
2023/03/04 14:20:25;;;;;;;26.57;16.40;;;;;;;3.97;44.51;100260.03;10350065;28;20248;-65
2023/03/04 14:25:35;;;;;;;31.03;16.53;;;;;;;5.02;44.12;100197.94;10348963;28;20245;-64
2023/03/04 14:30:39;;;;;;;24.97;16.07;;;;;;;2.91;46.30;100366.53;10355077;28;20229;-66
2023/03/04 14:35:46;;;;;;;27.13;14.63;;;;;;;3.51;45.62;100329.16;10332054;28;20302;-65
2023/03/04 14:40:54;;;;;;;30.03;17.27;;;;;;;2.95;46.19;100348.63;10306263;28;20242;-64
2023/03/04 14:45:59;;;;;;;27.57;17.47;;;;;;;3.94;45.72;100259.44;10304954;28;20246;-66
2023/03/04 14:51:01;;;;;;;23.47;15.27;;;;;;;4.55;44.24;100219.75;10330110;28;20237;-67
2023/03/04 14:56:09;;;;;;;26.20;15.87;;;;;;;3.18;46.46;100339.72;10344676;28;20614;-68
2023/03/04 15:01:20;;;;;;;27.13;15.00;;;;;;;4.72;44.06;100250.06;10343790;28;20237;-67
2023/03/04 15:06:25;;;;;;;23.90;15.27;;;;;;;5.00;44.41;100189.31;10343043;28;20236;-66
2023/03/04 15:11:44;;;;;;;23.20;14.97;;;;;;;3.86;44.75;100301.59;10349026;28;20233;-66
2023/03/04 15:16:55;;;;;;;21.63;13.87;;;;;;;3.46;45.63;100345.41;10345064;28;20631;-67
2023/03/04 15:22:05;;;;;;;25.00;14.73;;;;;;;3.53;45.23;100327.22;10344074;28;20240;-66
2023/03/04 15:27:11;;;;;;;27.20;15.90;;;;;;;4.91;44.00;100211.31;10349002;28;20237;-67
2023/03/04 15:32:13;;;;;;;21.17;13.63;;;;;;;4.10;45.66;100262.44;10348632;28;20244;-66
2023/03/04 15:37:20;;;;;;;24.47;13.90;;;;;;;3.30;46.49;100329.13;10348340;28;20249;-66
2023/03/04 15:42:22;;;;;;;27.77;14.63;;;;;;;4.79;44.67;100196.50;10345168;28;20225;-66
2023/03/04 15:47:24;;;;;;;30.60;13.87;;;;;;;4.22;45.20;100268.50;10344280;28;20232;-66
2023/03/04 15:52:26;;;;;;;25.07;15.33;;;;;;;2.83;47.27;100339.81;10349948;28;20269;-65
2023/03/04 15:57:27;;;;;;;24.73;14.33;;;;;;;3.47;46.16;100270.38;10349035;28;20245;-63
2023/03/04 16:02:29;;;;;;;24.93;15.20;;;;;;;3.46;46.49;100290.69;10353654;28;20724;-65
2023/03/04 16:07:31;;;;;;;23.73;14.63;;;;;;;3.50;46.58;100270.13;10354830;28;20229;-64
2023/03/04 16:12:32;;;;;;;25.37;15.10;;;;;;;3.02;46.96;100326.84;10351563;28;20233;-65
2023/03/04 16:17:34;;;;;;;26.77;15.17;;;;;;;3.99;46.10;100220.16;10356191;28;20623;-64
2023/03/04 16:22:36;;;;;;;27.77;16.03;;;;;;;3.62;46.04;100258.50;10357302;28;20233;-64
2023/03/04 16:27:39;;;;;;;30.63;19.40;;;;;;;3.38;46.86;100286.97;10315776;28;20234;-67
2023/03/04 16:32:40;;;;;;;26.77;14.87;;;;;;;4.12;45.80;100212.00;10314339;28;20234;-66
2023/03/04 16:37:43;;;;;;;29.20;14.97;;;;;;;4.25;45.48;100225.88;10353474;28;20241;-65
2023/03/04 16:42:45;;;;;;;32.43;19.97;;;;;;;6.25;43.44;100130.81;10312798;28;20242;-64
2023/03/04 16:47:47;;;;;;;23.30;14.97;;;;;;;4.95;43.91;100260.50;10312924;28;20268;-65
2023/03/04 16:52:49;;;;;;;25.90;17.00;;;;;;;6.59;42.20;100151.47;10311063;28;20234;-65
2023/03/04 16:57:52;;;;;;;28.13;15.67;;;;;;;5.94;42.45;100230.34;10309047;28;20242;-65
2023/03/04 17:02:59;;;;;;;31.80;16.90;;;;;;;6.06;42.92;100210.63;10313185;28;20736;-64
2023/03/04 17:08:00;;;;;;;30.33;16.40;;;;;;;5.30;43.50;100275.91;10310839;28;20830;-64
2023/03/04 17:13:02;;;;;;;27.23;15.97;;;;;;;5.51;43.60;100270.47;10308549;28;20237;-65
2023/03/04 17:18:04;;;;;;;28.60;15.03;;;;;;;5.98;43.13;100232.59;10312682;28;20230;-66
2023/03/04 17:23:06;;;;;;;23.30;16.17;;;;;;;5.93;43.20;100236.66;10351822;28;20260;-65
2023/03/04 17:28:07;;;;;;;26.90;15.63;;;;;;;6.14;42.88;100225.81;10351878;28;20237;-64
2023/03/04 17:33:09;;;;;;;24.40;15.60;;;;;;;5.96;42.84;100239.88;10348836;28;20661;-66
2023/03/04 17:38:12;;;;;;;26.83;15.40;;;;;;;5.17;45.19;100296.56;10349990;28;20226;-65
2023/03/04 17:43:14;;;;;;;28.97;17.00;;;;;;;5.56;44.17;100285.16;10350252;28;20244;-66
2023/03/04 17:48:15;;;;;;;29.10;16.80;;;;;;;6.07;43.51;100241.50;10352722;28;20228;-66
2023/03/04 17:53:18;;;;;;;26.63;17.90;;;;;;;6.21;43.04;100242.84;10349119;28;20636;-64
2023/03/04 17:58:22;;;;;;;32.17;19.87;;;;;;;5.40;44.79;100307.78;10352150;28;20244;-64
2023/03/04 18:03:23;;;;;;;41.57;25.00;;;;;;;5.02;45.23;100309.34;10343593;28;20237;-65
2023/03/04 18:08:25;;;;;;;61.53;37.73;;;;;;;4.61;46.44;100319.13;10316232;28;20248;-65
2023/03/04 18:13:27;;;;;;;38.83;22.17;;;;;;;4.19;46.74;100313.84;10348549;28;20232;-64
2023/03/04 18:18:28;;;;;;;30.27;17.20;;;;;;;3.15;48.31;100362.91;10352604;28;20259;-63
2023/03/04 18:23:30;;;;;;;27.67;15.27;;;;;;;3.52;48.18;100291.16;10352437;28;20690;-63
2023/03/04 18:28:32;;;;;;;30.07;15.07;;;;;;;2.65;49.26;100329.72;10354548;28;20233;-62
2023/03/04 18:33:34;;;;;;;23.57;15.10;;;;;;;4.10;47.16;100208.66;10346136;28;20293;-63
2023/03/04 18:38:36;;;;;;;28.57;15.33;;;;;;;4.26;46.67;100214.31;10356418;28;20233;-63
2023/03/04 18:43:38;;;;;;;28.37;16.57;;;;;;;3.91;46.93;100228.75;10347350;28;20728;-64
2023/03/04 18:48:47;;;;;;;28.33;16.17;;;;;;;2.79;49.64;100237.91;10356408;28;20241;-64
2023/03/04 18:53:49;;;;;;;28.17;16.23;;;;;;;2.88;48.59;100218.69;10348614;28;20241;-64
2023/03/04 18:58:51;;;;;;;26.67;15.97;;;;;;;2.20;48.86;100297.97;10355568;28;20632;-64
2023/03/04 19:03:57;;;;;;;27.20;15.53;;;;;;;3.36;48.15;100201.63;10347252;28;20233;-64
2023/03/04 19:08:59;;;;;;;27.97;17.03;;;;;;;3.99;46.91;100154.78;10351406;28;20298;-64
2023/03/04 19:14:01;;;;;;;29.73;18.27;;;;;;;4.31;46.29;100143.22;10349775;28;20245;-64
2023/03/04 19:19:03;;;;;;;30.43;18.37;;;;;;;4.34;46.39;100142.97;10352980;28;20237;-64
2023/03/04 19:24:05;;;;;;;28.67;17.77;;;;;;;2.39;48.49;100313.25;10344175;28;20626;-65
2023/03/04 19:29:07;;;;;;;32.57;18.53;;;;;;;2.29;49.43;100262.09;10360066;28;20233;-64
2023/03/04 19:34:09;;;;;;;30.70;17.60;;;;;;;3.25;47.97;100216.56;10359070;28;20243;-64
2023/03/04 19:39:13;;;;;;;34.07;17.87;;;;;;;3.81;47.46;100141.31;10357521;28;20737;-63
2023/03/04 19:44:14;;;;;;;36.17;20.77;;;;;;;4.46;46.21;100133.09;10356542;28;20236;-62
2023/03/04 19:49:16;;;;;;;30.33;17.60;;;;;;;2.51;49.69;100254.16;10357359;28;20712;-63
2023/03/04 19:54:17;;;;;;;31.70;17.27;;;;;;;2.26;49.83;100233.28;10344014;28;20234;-63
2023/03/04 19:59:20;;;;;;;28.17;16.67;;;;;;;3.00;49.22;100162.19;10315103;28;20269;-63
2023/03/04 20:04:21;;;;;;;29.17;17.40;;;;;;;3.52;47.31;100157.03;10325136;28;20307;-64
2023/03/04 20:09:23;;;;;;;32.40;16.93;;;;;;;2.03;48.96;100270.22;10355475;28;20229;-63
2023/03/04 20:14:26;;;;;;;27.83;15.80;;;;;;;2.72;48.70;100198.78;10340857;28;20229;-63
2023/03/04 20:19:29;;;;;;;29.23;16.53;;;;;;;3.73;47.12;100156.19;10315063;28;20234;-62
2023/03/04 20:24:30;;;;;;;31.10;17.47;;;;;;;4.23;46.50;100116.56;10326704;28;20226;-65
2023/03/04 20:29:32;;;;;;;39.90;21.07;;;;;;;3.78;47.79;100115.13;10344292;28;20238;-63
2023/03/04 20:34:35;;;;;;;37.33;21.20;;;;;;;4.20;46.74;100100.91;10303766;28;20237;-65
2023/03/04 20:39:37;;;;;;;30.70;18.17;;;;;;;3.71;47.15;100172.19;10306987;28;20320;-63
2023/03/04 20:44:38;;;;;;;32.60;16.40;;;;;;;2.08;49.82;100272.47;10318456;28;20237;-63
2023/03/04 20:49:41;;;;;;;31.63;17.90;;;;;;;4.26;47.03;100105.69;10330636;28;20230;-63
2023/03/04 20:54:42;;;;;;;30.87;16.80;;;;;;;4.49;45.83;100116.09;10306522;28;20732;-64
2023/03/04 20:59:44;;;;;;;31.73;16.97;;;;;;;4.50;46.20;100123.06;10313586;28;20244;-63
2023/03/04 21:04:46;;;;;;;30.33;17.00;;;;;;;4.52;46.26;100107.88;10309519;28;20634;-63
2023/03/04 21:09:47;;;;;;;29.33;19.07;;;;;;;3.52;47.25;100201.19;10315116;28;20234;-63
2023/03/04 21:14:49;;;;;;;27.47;17.37;;;;;;;3.30;48.17;100171.22;10311304;28;20995;-64
2023/03/04 21:19:51;;;;;;;30.13;18.47;;;;;;;3.40;47.99;100136.91;10312253;28;20242;-63
2023/03/04 21:24:52;;;;;;;32.53;16.93;;;;;;;2.88;48.25;100195.72;10322228;28;20237;-62
2023/03/04 21:29:54;;;;;;;29.70;17.13;;;;;;;1.69;50.71;100248.16;10351851;28;20245;-62
2023/03/04 21:34:56;;;;;;;30.37;16.90;;;;;;;2.43;48.94;100179.13;10339024;28;20226;-63
2023/03/04 21:40:00;;;;;;;32.40;19.43;;;;;;;3.14;49.38;100067.66;10325765;28;20225;-62
2023/03/04 21:45:02;;;;;;;34.60;19.03;;;;;;;2.50;49.85;100120.41;10349762;28;20239;-63
2023/03/04 21:50:04;;;;;;;31.13;18.30;;;;;;;1.72;50.82;100198.63;10349858;28;20245;-62
2023/03/04 21:55:05;;;;;;;31.10;17.03;;;;;;;1.73;51.05;100158.09;10334896;28;20234;-62
2023/03/04 22:00:08;;;;;;;32.27;19.13;;;;;;;2.86;49.80;100040.88;10310821;28;20237;-65
2023/03/04 22:05:09;;;;;;;28.90;18.00;;;;;;;2.92;49.68;100050.94;10329005;28;20233;-65
2023/03/04 22:10:11;;;;;;;30.80;17.23;;;;;;;3.38;48.69;100019.78;10351143;28;20244;-65
2023/03/04 22:15:12;;;;;;;33.70;18.73;;;;;;;4.07;47.24;100003.19;10333506;28;20253;-66
2023/03/04 22:20:14;;;;;;;31.03;18.73;;;;;;;3.65;47.19;100101.28;10307670;28;20289;-65
2023/03/04 22:25:16;;;;;;;32.90;18.50;;;;;;;3.73;47.05;100121.78;10309166;28;20233;-65
2023/03/04 22:30:18;;;;;;;30.93;17.03;;;;;;;4.74;45.78;100074.97;10309308;28;20234;-66
2023/03/04 22:35:19;;;;;;;29.43;17.50;;;;;;;4.20;46.47;100087.69;10310221;28;20730;-65
2023/03/04 22:40:22;;;;;;;31.10;18.23;;;;;;;5.16;45.17;100044.66;10329583;28;20225;-65
2023/03/04 22:45:26;;;;;;;34.00;18.93;;;;;;;3.98;47.21;100110.72;10350370;28;20229;-65
2023/03/04 22:50:28;;;;;;;31.70;18.27;;;;;;;4.92;46.05;100044.13;10348573;28;20269;-65
2023/03/04 22:55:30;;;;;;;35.40;20.07;;;;;;;4.15;46.63;100121.69;10347404;28;20240;-65
2023/03/04 23:00:32;;;;;;;33.40;19.77;;;;;;;5.02;45.54;100067.97;10351412;28;20598;-65
2023/03/04 23:05:33;;;;;;;31.70;18.13;;;;;;;4.10;45.86;100131.84;10326127;28;20228;-65